sensor_id;sensor_type;location;lat;lon;timestamp;temperature;humidity
34279;DHT22;20538;51.528;9.942;2023-12-20T00:00:55;5.30;99.90
34279;DHT22;20538;51.528;9.942;2023-12-20T00:03:21;5.30;99.90
34279;DHT22;20538;51.528;9.942;2023-12-20T00:05:47;5.40;99.90
34279;DHT22;20538;51.528;9.942;2023-12-20T00:08:13;5.40;99.90
34279;DHT22;20538;51.528;9.942;2023-12-20T00:10:39;5.30;99.90
34279;DHT22;20538;51.528;9.942;2023-12-20T00:13:04;5.40;99.90
34279;DHT22;20538;51.528;9.942;2023-12-20T00:15:30;5.40;99.90
34279;DHT22;20538;51.528;9.942;2023-12-20T00:17:56;5.40;99.90
34279;DHT22;20538;51.528;9.942;2023-12-20T00:20:21;5.40;99.90
34279;DHT22;20538;51.528;9.942;2023-12-20T00:22:47;5.50;99.90
34279;DHT22;20538;51.528;9.942;2023-12-20T00:25:12;5.50;99.90
34279;DHT22;20538;51.528;9.942;2023-12-20T00:27:38;5.40;99.90
34279;DHT22;20538;51.528;9.942;2023-12-20T00:30:04;5.50;99.90
34279;DHT22;20538;51.528;9.942;2023-12-20T00:32:30;5.50;99.90
34279;DHT22;20538;51.528;9.942;2023-12-20T00:34:55;5.50;99.90
34279;DHT22;20538;51.528;9.942;2023-12-20T00:37:21;5.50;99.90
34279;DHT22;20538;51.528;9.942;2023-12-20T00:39:47;5.50;99.90
34279;DHT22;20538;51.528;9.942;2023-12-20T00:42:13;5.50;99.90
34279;DHT22;20538;51.528;9.942;2023-12-20T00:44:38;5.50;99.90
34279;DHT22;20538;51.528;9.942;2023-12-20T00:47:04;5.50;99.90
34279;DHT22;20538;51.528;9.942;2023-12-20T00:49:30;5.60;99.90
34279;DHT22;20538;51.528;9.942;2023-12-20T00:51:55;5.60;99.90
34279;DHT22;20538;51.528;9.942;2023-12-20T00:54:21;5.60;99.90
34279;DHT22;20538;51.528;9.942;2023-12-20T00:56:46;5.60;99.90
34279;DHT22;20538;51.528;9.942;2023-12-20T00:59:12;5.60;99.90
34279;DHT22;20538;51.528;9.942;2023-12-20T01:01:38;5.60;99.90
34279;DHT22;20538;51.528;9.942;2023-12-20T01:04:04;5.60;99.90
34279;DHT22;20538;51.528;9.942;2023-12-20T01:06:29;5.60;99.90
34279;DHT22;20538;51.528;9.942;2023-12-20T01:08:55;5.60;99.90
34279;DHT22;20538;51.528;9.942;2023-12-20T01:11:20;5.60;99.90
34279;DHT22;20538;51.528;9.942;2023-12-20T01:13:46;5.70;99.90
34279;DHT22;20538;51.528;9.942;2023-12-20T01:16:12;5.70;99.90
34279;DHT22;20538;51.528;9.942;2023-12-20T01:18:38;5.70;99.90
34279;DHT22;20538;51.528;9.942;2023-12-20T01:21:04;5.60;99.90
34279;DHT22;20538;51.528;9.942;2023-12-20T01:23:30;5.60;99.90
34279;DHT22;20538;51.528;9.942;2023-12-20T01:25:56;5.70;99.90
34279;DHT22;20538;51.528;9.942;2023-12-20T01:28:21;5.70;99.90
34279;DHT22;20538;51.528;9.942;2023-12-20T01:30:47;5.70;99.90
34279;DHT22;20538;51.528;9.942;2023-12-20T01:33:13;5.70;99.90
34279;DHT22;20538;51.528;9.942;2023-12-20T01:35:39;5.70;99.90
34279;DHT22;20538;51.528;9.942;2023-12-20T01:38:04;5.70;99.90
34279;DHT22;20538;51.528;9.942;2023-12-20T01:40:30;5.70;99.90
34279;DHT22;20538;51.528;9.942;2023-12-20T01:43:07;5.80;99.90
34279;DHT22;20538;51.528;9.942;2023-12-20T01:45:34;5.80;99.90
34279;DHT22;20538;51.528;9.942;2023-12-20T01:48:00;5.70;99.90
34279;DHT22;20538;51.528;9.942;2023-12-20T01:50:28;5.80;99.90
34279;DHT22;20538;51.528;9.942;2023-12-20T01:52:55;5.80;99.90
34279;DHT22;20538;51.528;9.942;2023-12-20T01:55:24;5.80;99.90
34279;DHT22;20538;51.528;9.942;2023-12-20T01:57:50;5.80;99.90
34279;DHT22;20538;51.528;9.942;2023-12-20T02:00:16;5.80;99.90
34279;DHT22;20538;51.528;9.942;2023-12-20T02:02:45;5.80;99.90
34279;DHT22;20538;51.528;9.942;2023-12-20T02:05:11;5.80;99.90
34279;DHT22;20538;51.528;9.942;2023-12-20T02:07:37;5.80;99.90
34279;DHT22;20538;51.528;9.942;2023-12-20T02:10:03;5.80;99.90
34279;DHT22;20538;51.528;9.942;2023-12-20T02:12:30;5.80;99.90
34279;DHT22;20538;51.528;9.942;2023-12-20T02:14:55;5.80;99.90
34279;DHT22;20538;51.528;9.942;2023-12-20T02:17:22;5.80;99.90
34279;DHT22;20538;51.528;9.942;2023-12-20T02:19:49;5.80;99.90
34279;DHT22;20538;51.528;9.942;2023-12-20T02:22:15;5.80;99.90
34279;DHT22;20538;51.528;9.942;2023-12-20T02:24:41;5.80;99.90
34279;DHT22;20538;51.528;9.942;2023-12-20T02:27:08;5.80;99.90
34279;DHT22;20538;51.528;9.942;2023-12-20T02:29:34;5.80;99.90
34279;DHT22;20538;51.528;9.942;2023-12-20T02:32:00;5.80;99.90
34279;DHT22;20538;51.528;9.942;2023-12-20T02:34:26;5.80;99.90
34279;DHT22;20538;51.528;9.942;2023-12-20T02:36:51;5.80;99.90
34279;DHT22;20538;51.528;9.942;2023-12-20T02:39:18;5.80;99.90
34279;DHT22;20538;51.528;9.942;2023-12-20T02:41:44;5.90;99.90
34279;DHT22;20538;51.528;9.942;2023-12-20T02:44:09;5.80;99.90
34279;DHT22;20538;51.528;9.942;2023-12-20T02:46:35;5.80;99.90
34279;DHT22;20538;51.528;9.942;2023-12-20T02:49:01;5.80;99.90
34279;DHT22;20538;51.528;9.942;2023-12-20T02:51:26;5.80;99.90
34279;DHT22;20538;51.528;9.942;2023-12-20T02:53:52;5.80;99.90
34279;DHT22;20538;51.528;9.942;2023-12-20T02:56:17;5.90;99.90
34279;DHT22;20538;51.528;9.942;2023-12-20T02:58:43;5.90;99.90
34279;DHT22;20538;51.528;9.942;2023-12-20T03:01:09;5.90;99.90
34279;DHT22;20538;51.528;9.942;2023-12-20T03:03:35;5.90;99.90
34279;DHT22;20538;51.528;9.942;2023-12-20T03:06:00;6.00;99.90
34279;DHT22;20538;51.528;9.942;2023-12-20T03:08:26;6.00;99.90
34279;DHT22;20538;51.528;9.942;2023-12-20T03:10:51;6.00;99.90
34279;DHT22;20538;51.528;9.942;2023-12-20T03:13:18;6.00;99.90
34279;DHT22;20538;51.528;9.942;2023-12-20T03:15:45;6.00;99.90
34279;DHT22;20538;51.528;9.942;2023-12-20T03:18:10;5.90;99.90
34279;DHT22;20538;51.528;9.942;2023-12-20T03:20:36;5.70;99.90
34279;DHT22;20538;51.528;9.942;2023-12-20T03:23:02;5.60;99.90
34279;DHT22;20538;51.528;9.942;2023-12-20T03:25:27;5.50;99.90
34279;DHT22;20538;51.528;9.942;2023-12-20T03:27:53;5.60;99.90
34279;DHT22;20538;51.528;9.942;2023-12-20T03:30:19;5.60;99.90
34279;DHT22;20538;51.528;9.942;2023-12-20T03:32:45;5.60;99.90
34279;DHT22;20538;51.528;9.942;2023-12-20T03:35:11;5.70;99.90
34279;DHT22;20538;51.528;9.942;2023-12-20T03:37:36;5.70;99.90
34279;DHT22;20538;51.528;9.942;2023-12-20T03:40:02;5.80;99.90
34279;DHT22;20538;51.528;9.942;2023-12-20T03:42:28;5.70;99.90
34279;DHT22;20538;51.528;9.942;2023-12-20T03:44:54;5.70;99.90
34279;DHT22;20538;51.528;9.942;2023-12-20T03:47:19;5.70;99.90
34279;DHT22;20538;51.528;9.942;2023-12-20T03:49:45;5.70;99.90
34279;DHT22;20538;51.528;9.942;2023-12-20T03:52:10;5.70;99.90
34279;DHT22;20538;51.528;9.942;2023-12-20T03:54:36;5.70;99.90
34279;DHT22;20538;51.528;9.942;2023-12-20T03:57:02;5.70;99.90
34279;DHT22;20538;51.528;9.942;2023-12-20T03:59:27;5.70;99.90
34279;DHT22;20538;51.528;9.942;2023-12-20T04:01:53;5.80;99.90
34279;DHT22;20538;51.528;9.942;2023-12-20T04:04:19;5.70;99.90
34279;DHT22;20538;51.528;9.942;2023-12-20T04:06:44;5.70;99.90
34279;DHT22;20538;51.528;9.942;2023-12-20T04:09:10;5.80;99.90
34279;DHT22;20538;51.528;9.942;2023-12-20T04:11:36;5.80;99.90
34279;DHT22;20538;51.528;9.942;2023-12-20T04:14:02;5.80;99.90
34279;DHT22;20538;51.528;9.942;2023-12-20T04:16:28;5.80;99.90
34279;DHT22;20538;51.528;9.942;2023-12-20T04:18:53;5.80;99.90
34279;DHT22;20538;51.528;9.942;2023-12-20T04:21:19;5.80;99.90
34279;DHT22;20538;51.528;9.942;2023-12-20T04:23:45;5.80;99.90
34279;DHT22;20538;51.528;9.942;2023-12-20T04:26:10;5.80;99.90
34279;DHT22;20538;51.528;9.942;2023-12-20T04:28:36;5.70;99.90
34279;DHT22;20538;51.528;9.942;2023-12-20T04:31:01;5.70;99.90
34279;DHT22;20538;51.528;9.942;2023-12-20T04:33:27;5.70;99.90
34279;DHT22;20538;51.528;9.942;2023-12-20T04:35:53;5.70;99.90
34279;DHT22;20538;51.528;9.942;2023-12-20T04:38:18;5.70;99.90
34279;DHT22;20538;51.528;9.942;2023-12-20T04:40:44;5.70;99.90
34279;DHT22;20538;51.528;9.942;2023-12-20T04:43:10;5.80;99.90
34279;DHT22;20538;51.528;9.942;2023-12-20T04:45:35;5.80;99.90
34279;DHT22;20538;51.528;9.942;2023-12-20T04:48:02;5.80;99.90
34279;DHT22;20538;51.528;9.942;2023-12-20T04:50:28;5.80;99.90
34279;DHT22;20538;51.528;9.942;2023-12-20T04:52:53;5.90;99.90
34279;DHT22;20538;51.528;9.942;2023-12-20T04:55:19;5.80;99.90
34279;DHT22;20538;51.528;9.942;2023-12-20T04:57:45;5.80;99.90
34279;DHT22;20538;51.528;9.942;2023-12-20T05:00:11;5.80;99.90
34279;DHT22;20538;51.528;9.942;2023-12-20T05:02:41;5.80;99.90
34279;DHT22;20538;51.528;9.942;2023-12-20T05:05:07;5.90;99.90
34279;DHT22;20538;51.528;9.942;2023-12-20T05:07:32;5.80;99.90
34279;DHT22;20538;51.528;9.942;2023-12-20T05:09:58;5.80;99.90
34279;DHT22;20538;51.528;9.942;2023-12-20T05:12:24;5.80;99.90
34279;DHT22;20538;51.528;9.942;2023-12-20T05:14:51;5.80;99.90
34279;DHT22;20538;51.528;9.942;2023-12-20T05:17:17;5.90;99.90
34279;DHT22;20538;51.528;9.942;2023-12-20T05:19:42;5.80;99.90
34279;DHT22;20538;51.528;9.942;2023-12-20T05:22:08;5.90;99.90
34279;DHT22;20538;51.528;9.942;2023-12-20T05:24:34;5.90;99.90
34279;DHT22;20538;51.528;9.942;2023-12-20T05:26:59;5.90;99.90
34279;DHT22;20538;51.528;9.942;2023-12-20T05:29:25;5.90;99.90
34279;DHT22;20538;51.528;9.942;2023-12-20T05:31:51;5.90;99.90
34279;DHT22;20538;51.528;9.942;2023-12-20T05:34:16;5.90;99.90
34279;DHT22;20538;51.528;9.942;2023-12-20T05:36:42;5.90;99.90
34279;DHT22;20538;51.528;9.942;2023-12-20T05:39:07;5.80;99.90
34279;DHT22;20538;51.528;9.942;2023-12-20T05:41:33;5.80;99.90
34279;DHT22;20538;51.528;9.942;2023-12-20T05:43:59;5.80;99.90
34279;DHT22;20538;51.528;9.942;2023-12-20T05:46:25;5.80;99.90
34279;DHT22;20538;51.528;9.942;2023-12-20T05:48:50;5.80;99.90
34279;DHT22;20538;51.528;9.942;2023-12-20T05:51:17;5.80;99.90
34279;DHT22;20538;51.528;9.942;2023-12-20T05:53:43;5.80;99.90
34279;DHT22;20538;51.528;9.942;2023-12-20T05:56:09;5.80;99.90
34279;DHT22;20538;51.528;9.942;2023-12-20T05:58:35;5.80;99.90
34279;DHT22;20538;51.528;9.942;2023-12-20T06:01:03;5.80;99.90
34279;DHT22;20538;51.528;9.942;2023-12-20T06:03:29;5.80;99.90
34279;DHT22;20538;51.528;9.942;2023-12-20T06:05:55;5.70;99.90
34279;DHT22;20538;51.528;9.942;2023-12-20T06:08:20;5.80;99.90
34279;DHT22;20538;51.528;9.942;2023-12-20T06:10:46;5.80;99.90
34279;DHT22;20538;51.528;9.942;2023-12-20T06:13:12;5.80;99.90
34279;DHT22;20538;51.528;9.942;2023-12-20T06:15:38;5.70;99.90
34279;DHT22;20538;51.528;9.942;2023-12-20T06:18:06;5.80;99.90
34279;DHT22;20538;51.528;9.942;2023-12-20T06:20:32;5.80;99.90
34279;DHT22;20538;51.528;9.942;2023-12-20T06:22:57;5.80;99.90
34279;DHT22;20538;51.528;9.942;2023-12-20T06:25:23;5.80;99.90
34279;DHT22;20538;51.528;9.942;2023-12-20T06:27:49;5.80;99.90
34279;DHT22;20538;51.528;9.942;2023-12-20T06:30:16;5.80;99.90
34279;DHT22;20538;51.528;9.942;2023-12-20T06:32:41;5.80;99.90
34279;DHT22;20538;51.528;9.942;2023-12-20T06:35:10;5.80;99.90
34279;DHT22;20538;51.528;9.942;2023-12-20T06:37:36;5.80;99.90
34279;DHT22;20538;51.528;9.942;2023-12-20T06:40:02;5.80;99.90
34279;DHT22;20538;51.528;9.942;2023-12-20T06:42:27;5.80;99.90
34279;DHT22;20538;51.528;9.942;2023-12-20T06:44:53;5.80;99.90
34279;DHT22;20538;51.528;9.942;2023-12-20T06:47:18;5.80;99.90
34279;DHT22;20538;51.528;9.942;2023-12-20T06:49:44;5.80;99.90
34279;DHT22;20538;51.528;9.942;2023-12-20T06:52:10;5.80;99.90
34279;DHT22;20538;51.528;9.942;2023-12-20T06:54:35;5.80;99.90
34279;DHT22;20538;51.528;9.942;2023-12-20T06:57:01;5.80;99.90
34279;DHT22;20538;51.528;9.942;2023-12-20T06:59:28;5.90;99.90
34279;DHT22;20538;51.528;9.942;2023-12-20T07:01:54;5.90;99.90
34279;DHT22;20538;51.528;9.942;2023-12-20T07:04:20;5.80;99.90
34279;DHT22;20538;51.528;9.942;2023-12-20T07:06:47;5.80;99.90
34279;DHT22;20538;51.528;9.942;2023-12-20T07:09:13;5.80;99.90
34279;DHT22;20538;51.528;9.942;2023-12-20T07:11:39;5.90;99.90
34279;DHT22;20538;51.528;9.942;2023-12-20T07:14:05;5.80;99.90
34279;DHT22;20538;51.528;9.942;2023-12-20T07:16:30;5.80;99.90
34279;DHT22;20538;51.528;9.942;2023-12-20T07:18:56;5.80;99.90
34279;DHT22;20538;51.528;9.942;2023-12-20T07:21:22;5.80;99.90
34279;DHT22;20538;51.528;9.942;2023-12-20T07:23:48;5.80;99.90
34279;DHT22;20538;51.528;9.942;2023-12-20T07:26:14;5.70;99.90
34279;DHT22;20538;51.528;9.942;2023-12-20T07:28:40;5.60;99.90
34279;DHT22;20538;51.528;9.942;2023-12-20T07:31:06;5.60;99.90
34279;DHT22;20538;51.528;9.942;2023-12-20T07:33:32;5.60;99.90
34279;DHT22;20538;51.528;9.942;2023-12-20T07:35:59;5.60;99.90
34279;DHT22;20538;51.528;9.942;2023-12-20T07:38:24;5.60;99.90
34279;DHT22;20538;51.528;9.942;2023-12-20T07:40:50;5.70;99.90
34279;DHT22;20538;51.528;9.942;2023-12-20T07:43:15;5.70;99.90
34279;DHT22;20538;51.528;9.942;2023-12-20T07:45:42;5.70;99.90
34279;DHT22;20538;51.528;9.942;2023-12-20T07:48:07;5.70;99.90
34279;DHT22;20538;51.528;9.942;2023-12-20T07:50:34;5.70;99.90
34279;DHT22;20538;51.528;9.942;2023-12-20T07:52:59;5.70;99.90
34279;DHT22;20538;51.528;9.942;2023-12-20T07:55:26;5.70;99.90
34279;DHT22;20538;51.528;9.942;2023-12-20T07:57:52;5.70;99.90
34279;DHT22;20538;51.528;9.942;2023-12-20T08:00:18;5.70;99.90
34279;DHT22;20538;51.528;9.942;2023-12-20T08:02:44;5.80;99.90
34279;DHT22;20538;51.528;9.942;2023-12-20T08:05:10;5.80;99.90
34279;DHT22;20538;51.528;9.942;2023-12-20T08:07:36;5.70;99.90
34279;DHT22;20538;51.528;9.942;2023-12-20T08:10:01;5.70;99.90
34279;DHT22;20538;51.528;9.942;2023-12-20T08:12:27;5.80;99.90
34279;DHT22;20538;51.528;9.942;2023-12-20T08:14:53;5.80;99.90
34279;DHT22;20538;51.528;9.942;2023-12-20T08:17:19;5.80;99.90
34279;DHT22;20538;51.528;9.942;2023-12-20T08:19:45;5.80;99.90
34279;DHT22;20538;51.528;9.942;2023-12-20T08:22:11;5.80;99.90
34279;DHT22;20538;51.528;9.942;2023-12-20T08:24:37;5.80;99.90
34279;DHT22;20538;51.528;9.942;2023-12-20T08:27:04;5.70;99.90
34279;DHT22;20538;51.528;9.942;2023-12-20T08:29:29;5.70;99.90
34279;DHT22;20538;51.528;9.942;2023-12-20T08:31:55;5.70;99.90
34279;DHT22;20538;51.528;9.942;2023-12-20T08:34:22;5.70;99.90
34279;DHT22;20538;51.528;9.942;2023-12-20T08:36:47;5.80;99.90
34279;DHT22;20538;51.528;9.942;2023-12-20T08:39:13;5.80;99.90
34279;DHT22;20538;51.528;9.942;2023-12-20T08:41:39;5.80;99.90
34279;DHT22;20538;51.528;9.942;2023-12-20T08:44:04;5.80;99.90
34279;DHT22;20538;51.528;9.942;2023-12-20T08:46:30;5.80;99.90
34279;DHT22;20538;51.528;9.942;2023-12-20T08:48:56;5.80;99.90
34279;DHT22;20538;51.528;9.942;2023-12-20T08:51:21;5.80;99.90
34279;DHT22;20538;51.528;9.942;2023-12-20T08:53:49;5.90;99.90
34279;DHT22;20538;51.528;9.942;2023-12-20T08:56:15;6.00;99.90
34279;DHT22;20538;51.528;9.942;2023-12-20T08:58:40;6.00;99.90
34279;DHT22;20538;51.528;9.942;2023-12-20T09:01:07;6.10;99.90
34279;DHT22;20538;51.528;9.942;2023-12-20T09:03:33;6.00;99.90
34279;DHT22;20538;51.528;9.942;2023-12-20T09:05:58;6.10;99.90
34279;DHT22;20538;51.528;9.942;2023-12-20T09:08:24;6.10;99.90
34279;DHT22;20538;51.528;9.942;2023-12-20T09:10:50;6.10;99.90
34279;DHT22;20538;51.528;9.942;2023-12-20T09:13:16;6.10;99.90
34279;DHT22;20538;51.528;9.942;2023-12-20T09:15:41;6.10;99.90
34279;DHT22;20538;51.528;9.942;2023-12-20T09:18:07;6.10;99.90
34279;DHT22;20538;51.528;9.942;2023-12-20T09:20:33;6.10;99.90
34279;DHT22;20538;51.528;9.942;2023-12-20T09:22:59;6.10;99.90
34279;DHT22;20538;51.528;9.942;2023-12-20T09:25:25;6.10;99.90
34279;DHT22;20538;51.528;9.942;2023-12-20T09:27:52;6.20;99.90
34279;DHT22;20538;51.528;9.942;2023-12-20T09:30:18;6.20;99.90
34279;DHT22;20538;51.528;9.942;2023-12-20T09:32:43;6.10;99.90
34279;DHT22;20538;51.528;9.942;2023-12-20T09:35:09;6.20;99.90
34279;DHT22;20538;51.528;9.942;2023-12-20T09:37:35;6.10;99.90
34279;DHT22;20538;51.528;9.942;2023-12-20T09:40:01;6.20;99.90
34279;DHT22;20538;51.528;9.942;2023-12-20T09:42:38;6.10;99.90
34279;DHT22;20538;51.528;9.942;2023-12-20T09:45:08;6.10;99.90
34279;DHT22;20538;51.528;9.942;2023-12-20T09:47:35;6.20;99.90
34279;DHT22;20538;51.528;9.942;2023-12-20T09:50:04;6.20;99.90
34279;DHT22;20538;51.528;9.942;2023-12-20T09:52:30;6.20;99.90
34279;DHT22;20538;51.528;9.942;2023-12-20T09:54:57;6.20;99.90
34279;DHT22;20538;51.528;9.942;2023-12-20T09:57:23;6.20;99.90
34279;DHT22;20538;51.528;9.942;2023-12-20T09:59:48;6.20;99.90
34279;DHT22;20538;51.528;9.942;2023-12-20T10:02:18;6.30;99.90
34279;DHT22;20538;51.528;9.942;2023-12-20T10:04:47;6.20;99.90
34279;DHT22;20538;51.528;9.942;2023-12-20T10:07:13;6.20;99.90
34279;DHT22;20538;51.528;9.942;2023-12-20T10:09:39;6.20;99.90
34279;DHT22;20538;51.528;9.942;2023-12-20T10:12:05;6.30;99.90
34279;DHT22;20538;51.528;9.942;2023-12-20T10:14:32;6.20;99.90
34279;DHT22;20538;51.528;9.942;2023-12-20T10:17:04;6.20;99.90
34279;DHT22;20538;51.528;9.942;2023-12-20T10:19:31;6.20;99.90
34279;DHT22;20538;51.528;9.942;2023-12-20T10:22:01;6.20;99.90
34279;DHT22;20538;51.528;9.942;2023-12-20T10:24:29;6.20;99.90
34279;DHT22;20538;51.528;9.942;2023-12-20T10:27:05;6.30;99.90
34279;DHT22;20538;51.528;9.942;2023-12-20T10:29:37;6.30;99.90
34279;DHT22;20538;51.528;9.942;2023-12-20T10:32:26;6.30;99.90
34279;DHT22;20538;51.528;9.942;2023-12-20T10:34:54;6.40;99.90
34279;DHT22;20538;51.528;9.942;2023-12-20T10:37:20;6.40;99.90
34279;DHT22;20538;51.528;9.942;2023-12-20T10:39:53;6.40;99.90
34279;DHT22;20538;51.528;9.942;2023-12-20T10:42:26;6.50;99.90
34279;DHT22;20538;51.528;9.942;2023-12-20T10:44:52;6.40;99.90
34279;DHT22;20538;51.528;9.942;2023-12-20T10:47:19;6.40;99.90
34279;DHT22;20538;51.528;9.942;2023-12-20T10:49:45;6.40;99.90
34279;DHT22;20538;51.528;9.942;2023-12-20T10:52:12;6.30;99.90
34279;DHT22;20538;51.528;9.942;2023-12-20T10:54:41;6.30;99.90
34279;DHT22;20538;51.528;9.942;2023-12-20T10:57:07;6.20;99.90
34279;DHT22;20538;51.528;9.942;2023-12-20T10:59:39;6.30;99.90
34279;DHT22;20538;51.528;9.942;2023-12-20T11:02:06;6.30;99.90
34279;DHT22;20538;51.528;9.942;2023-12-20T11:04:50;6.30;99.90
34279;DHT22;20538;51.528;9.942;2023-12-20T11:09:58;6.20;99.90
34279;DHT22;20538;51.528;9.942;2023-12-20T11:12:42;6.30;99.90
34279;DHT22;20538;51.528;9.942;2023-12-20T11:15:11;6.20;99.90
34279;DHT22;20538;51.528;9.942;2023-12-20T11:17:39;6.20;99.90
34279;DHT22;20538;51.528;9.942;2023-12-20T11:20:07;6.30;99.90
34279;DHT22;20538;51.528;9.942;2023-12-20T11:22:34;6.30;99.90
34279;DHT22;20538;51.528;9.942;2023-12-20T11:25:05;6.30;99.90
34279;DHT22;20538;51.528;9.942;2023-12-20T11:27:34;6.30;99.90
34279;DHT22;20538;51.528;9.942;2023-12-20T11:30:03;6.20;99.90
34279;DHT22;20538;51.528;9.942;2023-12-20T11:32:33;6.30;99.90
34279;DHT22;20538;51.528;9.942;2023-12-20T11:35:17;6.30;99.90
34279;DHT22;20538;51.528;9.942;2023-12-20T11:37:45;6.20;99.90
34279;DHT22;20538;51.528;9.942;2023-12-20T11:40:17;6.10;99.90
34279;DHT22;20538;51.528;9.942;2023-12-20T11:42:48;6.20;99.90
34279;DHT22;20538;51.528;9.942;2023-12-20T11:45:16;6.30;99.90
34279;DHT22;20538;51.528;9.942;2023-12-20T11:47:47;6.30;99.90
34279;DHT22;20538;51.528;9.942;2023-12-20T11:50:18;6.20;99.90
34279;DHT22;20538;51.528;9.942;2023-12-20T11:52:44;6.30;99.90
34279;DHT22;20538;51.528;9.942;2023-12-20T11:55:09;6.40;99.90
34279;DHT22;20538;51.528;9.942;2023-12-20T11:57:36;6.40;99.90
34279;DHT22;20538;51.528;9.942;2023-12-20T12:00:02;6.30;99.90
34279;DHT22;20538;51.528;9.942;2023-12-20T12:02:28;6.30;99.90
34279;DHT22;20538;51.528;9.942;2023-12-20T12:04:53;6.30;99.90
34279;DHT22;20538;51.528;9.942;2023-12-20T12:07:20;6.40;99.90
34279;DHT22;20538;51.528;9.942;2023-12-20T12:09:46;6.30;99.90
34279;DHT22;20538;51.528;9.942;2023-12-20T12:12:12;6.30;99.90
34279;DHT22;20538;51.528;9.942;2023-12-20T12:14:38;6.30;99.90
34279;DHT22;20538;51.528;9.942;2023-12-20T12:17:13;6.30;99.90
34279;DHT22;20538;51.528;9.942;2023-12-20T12:19:39;6.30;99.90
34279;DHT22;20538;51.528;9.942;2023-12-20T12:24:33;6.20;99.90
34279;DHT22;20538;51.528;9.942;2023-12-20T12:26:59;6.20;99.90
34279;DHT22;20538;51.528;9.942;2023-12-20T12:29:25;6.20;99.90
34279;DHT22;20538;51.528;9.942;2023-12-20T12:31:51;6.10;99.90
34279;DHT22;20538;51.528;9.942;2023-12-20T12:34:17;6.10;99.90
34279;DHT22;20538;51.528;9.942;2023-12-20T12:36:43;6.10;99.90
34279;DHT22;20538;51.528;9.942;2023-12-20T12:39:12;6.10;99.90
34279;DHT22;20538;51.528;9.942;2023-12-20T12:41:40;6.10;99.90
34279;DHT22;20538;51.528;9.942;2023-12-20T12:44:06;6.10;99.90
34279;DHT22;20538;51.528;9.942;2023-12-20T12:46:31;6.10;99.90
34279;DHT22;20538;51.528;9.942;2023-12-20T12:48:58;6.10;99.90
34279;DHT22;20538;51.528;9.942;2023-12-20T12:51:23;6.00;99.90
34279;DHT22;20538;51.528;9.942;2023-12-20T12:53:49;6.00;99.90
34279;DHT22;20538;51.528;9.942;2023-12-20T12:56:15;6.00;99.90
34279;DHT22;20538;51.528;9.942;2023-12-20T12:58:41;6.00;99.90
34279;DHT22;20538;51.528;9.942;2023-12-20T13:01:06;6.00;99.90
34279;DHT22;20538;51.528;9.942;2023-12-20T13:03:32;6.00;99.90
34279;DHT22;20538;51.528;9.942;2023-12-20T13:05:59;6.10;99.90
34279;DHT22;20538;51.528;9.942;2023-12-20T13:08:25;6.00;99.90
34279;DHT22;20538;51.528;9.942;2023-12-20T13:10:51;6.00;99.90
34279;DHT22;20538;51.528;9.942;2023-12-20T13:13:16;6.00;99.90
34279;DHT22;20538;51.528;9.942;2023-12-20T13:15:42;6.00;99.90
34279;DHT22;20538;51.528;9.942;2023-12-20T13:18:07;6.00;99.90
34279;DHT22;20538;51.528;9.942;2023-12-20T13:20:33;6.00;99.90
34279;DHT22;20538;51.528;9.942;2023-12-20T13:22:59;6.00;99.90
34279;DHT22;20538;51.528;9.942;2023-12-20T13:25:25;6.00;99.90
34279;DHT22;20538;51.528;9.942;2023-12-20T13:27:50;5.90;99.90
34279;DHT22;20538;51.528;9.942;2023-12-20T13:30:16;5.90;99.90
34279;DHT22;20538;51.528;9.942;2023-12-20T13:32:42;5.90;99.90
34279;DHT22;20538;51.528;9.942;2023-12-20T13:35:09;5.90;99.90
34279;DHT22;20538;51.528;9.942;2023-12-20T13:37:35;5.90;99.90
34279;DHT22;20538;51.528;9.942;2023-12-20T13:40:00;5.90;99.90
34279;DHT22;20538;51.528;9.942;2023-12-20T13:42:28;6.00;99.90
34279;DHT22;20538;51.528;9.942;2023-12-20T13:44:54;6.00;99.90
34279;DHT22;20538;51.528;9.942;2023-12-20T13:47:19;6.00;99.90
34279;DHT22;20538;51.528;9.942;2023-12-20T13:49:45;6.10;99.90
34279;DHT22;20538;51.528;9.942;2023-12-20T13:52:10;6.10;99.90
34279;DHT22;20538;51.528;9.942;2023-12-20T13:54:37;6.10;99.90
34279;DHT22;20538;51.528;9.942;2023-12-20T13:57:03;6.10;99.90
34279;DHT22;20538;51.528;9.942;2023-12-20T13:59:28;6.10;99.90
34279;DHT22;20538;51.528;9.942;2023-12-20T14:01:54;6.10;99.90
34279;DHT22;20538;51.528;9.942;2023-12-20T14:04:20;6.10;99.90
34279;DHT22;20538;51.528;9.942;2023-12-20T14:06:47;6.10;99.90
34279;DHT22;20538;51.528;9.942;2023-12-20T14:09:12;6.20;99.90
34279;DHT22;20538;51.528;9.942;2023-12-20T14:11:38;6.20;99.90
34279;DHT22;20538;51.528;9.942;2023-12-20T14:14:07;6.20;99.90
34279;DHT22;20538;51.528;9.942;2023-12-20T14:16:33;6.20;99.90
34279;DHT22;20538;51.528;9.942;2023-12-20T14:18:59;6.20;99.90
34279;DHT22;20538;51.528;9.942;2023-12-20T14:21:24;6.30;99.90
34279;DHT22;20538;51.528;9.942;2023-12-20T14:23:50;6.30;99.90
34279;DHT22;20538;51.528;9.942;2023-12-20T14:26:17;6.30;99.90
34279;DHT22;20538;51.528;9.942;2023-12-20T14:28:43;6.30;99.90
34279;DHT22;20538;51.528;9.942;2023-12-20T14:31:09;6.30;99.90
34279;DHT22;20538;51.528;9.942;2023-12-20T14:33:36;6.30;99.90
34279;DHT22;20538;51.528;9.942;2023-12-20T14:36:04;6.30;99.90
34279;DHT22;20538;51.528;9.942;2023-12-20T14:38:31;6.30;99.90
34279;DHT22;20538;51.528;9.942;2023-12-20T14:40:56;6.30;99.90
34279;DHT22;20538;51.528;9.942;2023-12-20T14:43:23;6.30;99.90
34279;DHT22;20538;51.528;9.942;2023-12-20T14:45:48;6.30;99.90
34279;DHT22;20538;51.528;9.942;2023-12-20T14:48:16;6.30;99.90
34279;DHT22;20538;51.528;9.942;2023-12-20T14:50:41;6.30;99.90
34279;DHT22;20538;51.528;9.942;2023-12-20T14:53:08;6.20;99.90
34279;DHT22;20538;51.528;9.942;2023-12-20T14:55:33;6.20;99.90
34279;DHT22;20538;51.528;9.942;2023-12-20T14:57:59;6.30;99.90
34279;DHT22;20538;51.528;9.942;2023-12-20T15:00:25;6.30;99.90
34279;DHT22;20538;51.528;9.942;2023-12-20T15:02:50;6.30;99.90
34279;DHT22;20538;51.528;9.942;2023-12-20T15:05:16;6.30;99.90
34279;DHT22;20538;51.528;9.942;2023-12-20T15:07:43;6.30;99.90
34279;DHT22;20538;51.528;9.942;2023-12-20T15:10:09;6.30;99.90
34279;DHT22;20538;51.528;9.942;2023-12-20T15:12:34;6.30;99.90
34279;DHT22;20538;51.528;9.942;2023-12-20T15:15:00;6.20;99.90
34279;DHT22;20538;51.528;9.942;2023-12-20T15:17:26;6.30;99.90
34279;DHT22;20538;51.528;9.942;2023-12-20T15:19:52;6.30;99.90
34279;DHT22;20538;51.528;9.942;2023-12-20T15:22:18;6.30;99.90
34279;DHT22;20538;51.528;9.942;2023-12-20T15:24:43;6.30;99.90
34279;DHT22;20538;51.528;9.942;2023-12-20T15:27:11;6.30;99.90
34279;DHT22;20538;51.528;9.942;2023-12-20T15:29:37;6.30;99.90
34279;DHT22;20538;51.528;9.942;2023-12-20T15:32:03;6.30;99.90
34279;DHT22;20538;51.528;9.942;2023-12-20T15:34:31;6.30;99.90
34279;DHT22;20538;51.528;9.942;2023-12-20T15:36:57;6.30;99.90
34279;DHT22;20538;51.528;9.942;2023-12-20T15:39:23;6.30;99.90
34279;DHT22;20538;51.528;9.942;2023-12-20T15:41:48;6.20;99.90
34279;DHT22;20538;51.528;9.942;2023-12-20T15:44:15;6.20;99.90